Time;durP1;ratioP1;P1;durP2;ratioP2;P2;SDS_P1;SDS_P2;PMS_P1;PMS_P2;Temp;Humidity;BMP_temperature;BMP_pressure;BME280_temperature;BME280_humidity;BME280_pressure;Samples;Min_cycle;Max_cycle;Signal;HPM_P1;HPM_P2
2022/04/19 00:01:10;;;;;;;9.80;6.13;;;4.70;73.40;;;;;;5019996;28;20457;-82
2022/04/19 00:03:37;;;;;;;10.30;9.40;;;4.50;74.20;;;;;;5020205;28;20461;-82
2022/04/19 00:06:04;;;;;;;10.17;9.17;;;4.70;75.20;;;;;;5019931;28;20477;-81
2022/04/19 00:08:31;;;;;;;10.07;9.07;;;4.60;73.30;;;;;;5019179;28;20469;-82
2022/04/19 00:10:58;;;;;;;10.63;9.63;;;4.60;75.80;;;;;;5020414;28;20879;-82
2022/04/19 00:13:25;;;;;;;11.03;10.03;;;4.50;75.50;;;;;;5019553;28;20480;-81
2022/04/19 00:15:51;;;;;;;14.80;13.70;;;4.50;76.50;;;;;;5019847;28;20480;-82
2022/04/19 00:18:21;;;;;;;13.47;12.33;;;4.50;79.10;;;;;;5019544;28;20460;-81
2022/04/19 00:20:49;;;;;;;18.17;16.70;;;4.50;79.80;;;;;;5020266;28;20540;-81
2022/04/19 00:23:16;;;;;;;15.93;14.83;;;4.40;80.90;;;;;;5019532;28;20453;-82
2022/04/19 00:25:44;;;;;;;22.47;21.07;;;4.30;81.20;;;;;;5019438;28;20512;-82
2022/04/19 00:28:12;;;;;;;15.33;14.33;;;4.30;82.10;;;;;;5018922;28;20453;-81
2022/04/19 00:30:39;;;;;;;11.30;10.30;;;4.30;80.50;;;;;;5018752;28;20457;-82
2022/04/19 00:33:07;;;;;;;10.17;9.40;;;4.20;80.70;;;;;;5019156;28;20481;-81
2022/04/19 00:35:35;;;;;;;12.43;11.53;;;4.00;81.60;;;;;;5018267;28;20984;-81
2022/04/19 00:38:02;;;;;;;13.17;12.17;;;4.00;82.10;;;;;;5018816;28;20453;-81
2022/04/19 00:40:29;;;;;;;13.03;12.23;;;4.00;84.90;;;;;;5018531;28;20453;-82
2022/04/19 00:42:56;;;;;;;17.33;15.83;;;4.00;84.70;;;;;;5019190;28;20453;-81
2022/04/19 00:45:23;;;;;;;25.97;24.47;;;4.10;85.60;;;;;;5019169;28;20460;-81
2022/04/19 00:47:50;;;;;;;33.50;31.60;;;4.10;86.10;;;;;;5018840;28;20464;-82
2022/04/19 00:50:17;;;;;;;34.00;32.40;;;4.10;86.90;;;;;;5017822;28;20450;-82
2022/04/19 00:52:45;;;;;;;35.97;34.27;;;4.10;85.60;;;;;;5018784;28;20481;-81
2022/04/19 00:55:13;;;;;;;53.83;51.10;;;4.10;85.20;;;;;;5018833;28;20972;-81
2022/04/19 00:57:41;;;;;;;88.57;85.40;;;4.00;88.10;;;;;;5018507;28;20477;-81
2022/04/19 01:00:12;;;;;;;74.77;71.93;;;3.90;89.80;;;;;;5016641;28;20457;-81
2022/04/19 01:02:40;;;;;;;54.50;52.03;;;3.90;90.50;;;;;;5018866;28;20946;-82
2022/04/19 01:05:08;;;;;;;65.17;62.37;;;3.80;90.10;;;;;;5018723;28;20453;-82
2022/04/19 01:07:36;;;;;;;76.40;73.37;;;3.70;90.90;;;;;;5018696;28;20480;-82
2022/04/19 01:10:05;;;;;;;71.70;68.83;;;3.70;91.50;;;;;;5017883;28;20827;-81
2022/04/19 01:15:16;;;;;;;61.63;59.03;;;3.70;90.60;;;;;;5018744;28;20533;-82
2022/04/19 01:17:43;;;;;;;40.77;38.97;;;3.70;90.90;;;;;;5018502;28;20464;-81
2022/04/19 01:20:12;;;;;;;26.70;25.23;;;3.60;90.40;;;;;;5017693;28;20613;-82
2022/04/19 01:22:41;;;;;;;35.40;33.60;;;3.60;90.50;;;;;;5018520;28;20480;-81
2022/04/19 01:25:10;;;;;;;29.53;28.03;;;3.40;91.00;;;;;;5018123;28;20476;-82
2022/04/19 01:27:37;;;;;;;23.07;21.57;;;3.40;91.00;;;;;;5018371;28;20477;-81
2022/04/19 01:30:06;;;;;;;27.77;26.10;;;3.30;91.00;;;;;;5017687;28;20454;-82
2022/04/19 01:32:33;;;;;;;33.77;31.57;;;3.40;91.40;;;;;;5018117;28;20476;-82
2022/04/19 01:35:08;;;;;;;25.23;23.73;;;3.40;91.90;;;;;;5018333;28;20464;-82
2022/04/19 01:37:35;;;;;;;29.17;27.30;;;3.40;91.30;;;;;;5018125;28;20476;-82
2022/04/19 01:40:20;;;;;;;28.73;26.80;;;3.40;91.90;;;;;;5017210;28;20457;-82
2022/04/19 01:42:48;;;;;;;29.13;27.53;;;3.30;91.20;;;;;;5018115;28;20479;-82
2022/04/19 01:45:15;;;;;;;36.17;34.20;;;3.30;91.40;;;;;;5018359;28;20456;-82
2022/04/19 01:47:43;;;;;;;36.60;34.80;;;3.30;92.20;;;;;;5015513;23;20498;-80
2022/04/19 01:50:12;;;;;;;24.77;23.27;;;3.20;92.40;;;;;;4996287;28;21060;-80
2022/04/19 01:52:39;;;;;;;25.13;23.60;;;3.20;92.10;;;;;;4997005;28;20477;-82
2022/04/19 01:55:09;;;;;;;25.50;24.00;;;3.30;93.10;;;;;;4996835;28;20450;-81
2022/04/19 01:57:36;;;;;;;25.07;23.40;;;3.30;92.00;;;;;;5013003;28;20559;-80
2022/04/19 02:00:04;;;;;;;23.93;22.50;;;3.30;92.50;;;;;;5015368;28;20457;-81
2022/04/19 02:02:31;;;;;;;21.90;20.60;;;3.40;92.40;;;;;;5015906;28;20456;-80
2022/04/19 02:04:57;;;;;;;46.67;44.30;;;3.30;91.60;;;;;;5016195;28;20461;-80
2022/04/19 02:07:24;;;;;;;61.83;59.07;;;3.40;92.80;;;;;;5016456;28;20481;-80
2022/04/19 02:09:51;;;;;;;72.67;69.77;;;3.40;92.50;;;;;;5015173;28;20453;-80
2022/04/19 02:12:20;;;;;;;86.87;83.33;;;3.50;92.50;;;;;;5016402;28;20488;-80
2022/04/19 02:14:46;;;;;;;94.70;91.13;;;3.40;92.50;;;;;;5016242;28;20974;-80
2022/04/19 02:17:13;;;;;;;147.57;142.47;;;3.30;93.00;;;;;;5016803;28;20477;-80
2022/04/19 02:19:40;;;;;;;154.50;149.10;;;3.30;93.60;;;;;;5015159;28;20460;-81
2022/04/19 02:22:09;;;;;;;190.50;184.17;;;3.20;94.00;;;;;;5016129;28;20828;-80
2022/04/19 02:24:36;;;;;;;221.40;213.87;;;3.20;94.30;;;;;;5016590;28;20480;-80
2022/04/19 02:27:05;;;;;;;267.27;258.47;;;3.10;94.10;;;;;;5015625;28;20485;-81
2022/04/19 02:29:33;;;;;;;301.67;291.47;;;3.00;95.20;;;;;;5015289;28;20902;-81
2022/04/19 02:32:00;;;;;;;374.67;361.07;;;3.00;96.30;;;;;;5015815;28;20453;-80
2022/04/19 02:34:26;;;;;;;342.27;329.17;;;3.00;98.60;;;;;;5015883;28;20480;-81
2022/04/19 02:36:54;;;;;;;277.03;266.47;;;3.00;98.90;;;;;;5015209;28;20469;-80
2022/04/19 02:39:20;;;;;;;301.67;290.67;;;2.90;99.40;;;;;;5014619;28;20458;-80
2022/04/19 02:41:47;;;;;;;228.00;220.03;;;2.80;99.80;;;;;;5015913;28;20457;-81
2022/04/19 02:44:14;;;;;;;223.50;214.50;;;2.80;99.90;;;;;;5015852;28;21021;-80
2022/04/19 02:46:42;;;;;;;255.50;245.60;;;2.80;99.90;;;;;;5015432;28;20488;-82
2022/04/19 02:49:09;;;;;;;243.33;234.23;;;2.80;99.90;;;;;;5015384;28;20484;-82
2022/04/19 02:51:36;;;;;;;230.50;222.23;;;2.80;99.90;;;;;;5015777;28;20458;-80
2022/04/19 02:54:03;;;;;;;263.70;254.87;;;2.90;99.90;;;;;;5015439;28;20480;-80
2022/04/19 02:56:30;;;;;;;181.17;174.67;;;2.80;99.90;;;;;;5015112;28;20477;-81
2022/04/19 02:58:57;;;;;;;240.73;232.30;;;2.90;99.90;;;;;;5015618;28;20465;-81
2022/04/19 03:01:24;;;;;;;190.67;183.40;;;2.90;99.90;;;;;;5019357;28;20448;-80
2022/04/19 03:03:52;;;;;;;270.97;260.37;;;2.80;99.90;;;;;;5019541;28;20453;-80
2022/04/19 03:06:19;;;;;;;288.50;278.10;;;2.70;99.90;;;;;;5018811;28;20480;-80
2022/04/19 03:08:45;;;;;;;379.90;365.43;;;2.80;99.90;;;;;;5018473;28;20457;-80
2022/04/19 03:11:12;;;;;;;361.87;348.73;;;2.80;99.90;;;;;;5019256;28;20537;-80
2022/04/19 03:13:39;;;;;;;323.53;311.60;;;2.90;99.90;;;;;;5018646;28;20485;-80
2022/04/19 03:16:06;;;;;;;330.27;318.47;;;2.80;99.90;;;;;;5019145;28;20515;-80
2022/04/19 03:18:33;;;;;;;242.70;234.40;;;2.80;99.90;;;;;;5018108;28;20456;-80
2022/04/19 03:21:01;;;;;;;300.27;289.87;;;2.80;99.90;;;;;;5019155;28;20539;-81
2022/04/19 03:28:57;;;;;;;300.23;289.97;;;2.70;99.90;;;;;;5018135;28;20432;-80
2022/04/19 03:31:24;;;;;;;331.03;319.33;;;2.60;99.90;;;;;;5018985;28;20829;-81
2022/04/19 03:33:52;;;;;;;418.43;401.97;;;2.50;99.90;;;;;;5018693;28;20856;-80
2022/04/19 03:36:20;;;;;;;397.33;382.37;;;2.60;99.90;;;;;;5018717;28;20523;-80
2022/04/19 03:38:47;;;;;;;368.87;355.10;;;2.60;99.90;;;;;;5017975;28;20457;-80
2022/04/19 03:41:14;;;;;;;305.43;294.47;;;2.60;99.90;;;;;;5018505;28;21176;-80
2022/04/19 03:43:41;;;;;;;202.90;195.93;;;2.50;99.90;;;;;;5018317;28;20456;-81
2022/04/19 03:46:08;;;;;;;137.90;132.87;;;2.60;99.90;;;;;;5018092;28;20480;-80
2022/04/19 03:48:36;;;;;;;123.77;119.27;;;2.50;99.90;;;;;;5017557;28;20460;-80
2022/04/19 03:51:04;;;;;;;120.97;116.63;;;2.50;99.90;;;;;;5018416;28;20830;-80
2022/04/19 03:53:32;;;;;;;150.57;145.07;;;2.40;99.90;;;;;;5017592;28;20477;-82
2022/04/19 03:56:03;;;;;;;338.67;327.23;;;2.30;99.90;;;;;;5017722;28;20533;-80
2022/04/19 03:58:32;;;;;;;374.67;362.03;;;2.40;99.90;;;;;;5017709;28;20523;-80
2022/04/19 04:01:14;;;;;;;455.57;438.87;;;2.30;99.90;;;;;;5018121;28;20976;-80
2022/04/19 04:03:41;;;;;;;547.10;524.17;;;2.30;99.90;;;;;;5015232;28;20540;-80
2022/04/19 04:06:07;;;;;;;554.77;531.53;;;2.30;99.90;;;;;;5017778;28;21009;-81
2022/04/19 04:08:36;;;;;;;586.00;560.35;;;2.30;99.90;;;;;;5017269;28;20456;-80
2022/04/19 04:11:02;;;;;;;524.40;502.23;;;2.30;99.90;;;;;;5018014;28;20208;-80
2022/04/19 04:13:29;;;;;;;439.07;421.60;;;2.10;99.90;;;;;;5017675;28;21009;-80
2022/04/19 04:15:57;;;;;;;444.43;426.27;;;2.10;99.90;;;;;;5017388;28;20460;-82
2022/04/19 04:18:24;;;;;;;556.03;531.43;;;2.00;99.90;;;;;;5017562;28;20449;-80
2022/04/19 04:20:53;;;;;;;561.60;536.53;;;2.10;99.90;;;;;;5018487;28;20825;-80
2022/04/19 04:23:19;;;;;;;503.10;482.17;;;2.10;99.90;;;;;;5017923;28;20460;-80
2022/04/19 04:25:50;;;;;;;523.23;500.43;;;2.10;99.90;;;;;;5017981;28;20827;-81
2022/04/19 04:28:24;;;;;;;469.00;449.13;;;2.20;99.90;;;;;;5017512;28;20540;-80
2022/04/19 04:30:51;;;;;;;606.70;578.43;;;2.10;99.90;;;;;;5017442;28;20515;-80
2022/04/19 04:33:23;;;;;;;678.20;644.40;;;2.20;99.90;;;;;;5017501;28;20480;-81
2022/04/19 04:35:50;;;;;;;676.63;642.90;;;2.20;99.90;;;;;;5018074;28;20461;-80
2022/04/19 04:38:17;;;;;;;699.33;662.80;;;2.30;99.90;;;;;;5017644;28;20891;-79
2022/04/19 04:40:45;;;;;;;727.20;686.80;;;2.30;99.90;;;;;;5019871;28;20461;-81
2022/04/19 04:43:14;;;;;;;732.17;688.90;;;2.40;99.90;;;;;;5019717;28;20453;-81
2022/04/19 04:45:41;;;;;;;699.43;662.17;;;2.50;99.90;;;;;;5020670;28;20491;-81
2022/04/19 04:50:55;;;;;;;707.20;669.87;;;2.60;99.90;;;;;;5019576;28;20476;-82
2022/04/19 04:53:22;;;;;;;680.67;646.50;;;2.70;99.90;;;;;;5020057;28;20481;-80
2022/04/19 04:55:49;;;;;;;656.40;624.23;;;2.70;99.90;;;;;;5017760;28;20446;-81
2022/04/19 04:58:17;;;;;;;661.23;629.37;;;2.80;99.90;;;;;;5014274;28;20781;-79
2022/04/19 05:00:44;;;;;;;673.27;639.80;;;2.90;99.90;;;;;;5017819;28;20465;-81
2022/04/19 05:03:10;;;;;;;643.43;612.10;;;3.00;99.90;;;;;;5019336;28;20826;-83
2022/04/19 05:05:37;;;;;;;585.00;557.73;;;3.00;99.90;;;;;;5018225;28;20453;-81
2022/04/19 05:08:04;;;;;;;528.30;503.33;;;3.00;99.90;;;;;;5017471;28;20568;-81
2022/04/19 05:10:31;;;;;;;634.47;604.00;;;2.90;99.90;;;;;;5018416;28;20441;-82
2022/04/19 05:12:58;;;;;;;614.23;585.83;;;3.00;99.90;;;;;;5019594;28;20548;-81
2022/04/19 05:15:26;;;;;;;608.13;580.07;;;3.00;99.90;;;;;;5019991;28;20453;-81
2022/04/19 05:17:53;;;;;;;565.47;540.13;;;3.10;99.90;;;;;;5018078;28;20479;-82
2022/04/19 05:20:20;;;;;;;538.27;515.27;;;3.10;99.90;;;;;;5017734;28;20457;-82
2022/04/19 05:22:46;;;;;;;660.70;628.13;;;3.20;99.90;;;;;;5019671;28;20452;-82
2022/04/19 05:25:13;;;;;;;696.87;656.73;;;3.40;99.90;;;;;;5017754;28;20460;-83
2022/04/19 05:27:40;;;;;;;489.07;468.17;;;3.70;99.90;;;;;;5018530;28;20517;-82
2022/04/19 05:30:08;;;;;;;47.77;45.37;;;4.40;99.90;;;;;;5017097;28;20954;-82
2022/04/19 05:32:36;;;;;;;13.77;7.77;;;5.00;99.90;;;;;;5015050;28;20449;-82
2022/04/19 05:35:04;;;;;;;12.90;7.93;;;5.80;99.90;;;;;;5017352;28;20499;-82
2022/04/19 05:37:30;;;;;;;8.40;5.77;;;6.30;94.30;;;;;;5017647;28;20491;-83
2022/04/19 05:39:58;;;;;;;9.47;6.47;;;6.80;89.70;;;;;;5018449;28;20540;-82
2022/04/19 05:42:24;;;;;;;13.77;6.77;;;7.10;80.40;;;;;;5016737;28;20457;-82
2022/04/19 05:44:51;;;;;;;14.83;6.70;;;7.10;76.20;;;;;;5016833;28;20452;-83
2022/04/19 05:47:18;;;;;;;8.27;5.63;;;7.20;72.90;;;;;;5013661;28;20492;-82
2022/04/19 05:49:46;;;;;;;11.03;5.40;;;7.20;71.20;;;;;;5017681;28;20463;-82
2022/04/19 05:52:13;;;;;;;8.73;6.23;;;7.20;67.80;;;;;;5017791;28;20836;-82
2022/04/19 05:54:39;;;;;;;9.17;6.50;;;7.10;70.40;;;;;;5016769;28;20483;-84
2022/04/19 05:57:09;;;;;;;10.77;6.70;;;7.10;73.30;;;;;;5018776;28;20473;-82
2022/04/19 05:59:35;;;;;;;11.27;7.37;;;7.00;75.40;;;;;;5015423;28;20453;-82
2022/04/19 06:04:53;;;;;;;12.90;7.80;;;7.00;73.70;;;;;;5017721;28;20484;-82
2022/04/19 06:07:20;;;;;;;11.97;7.97;;;7.00;75.40;;;;;;5015500;28;20477;-84
2022/04/19 06:09:47;;;;;;;10.40;8.50;;;7.00;73.00;;;;;;5016353;28;20460;-80
2022/04/19 06:12:14;;;;;;;21.40;9.87;;;7.10;75.50;;;;;;5017503;28;20460;-82
2022/04/19 06:14:41;;;;;;;14.53;7.90;;;7.10;74.10;;;;;;5016471;28;21027;-82
2022/04/19 06:17:07;;;;;;;12.50;9.50;;;7.10;73.90;;;;;;5015210;28;20477;-82
2022/04/19 06:19:34;;;;;;;17.60;9.60;;;7.20;72.30;;;;;;5015233;28;20464;-81
2022/04/19 06:22:03;;;;;;;17.70;10.13;;;7.30;72.90;;;;;;5016352;28;20456;-82
2022/04/19 06:24:29;;;;;;;18.60;9.90;;;7.30;73.30;;;;;;5016224;28;20453;-82
2022/04/19 06:26:56;;;;;;;15.80;9.40;;;7.20;73.80;;;;;;5015900;28;20481;-82
2022/04/19 06:29:23;;;;;;;11.63;9.20;;;7.30;71.50;;;;;;5015445;28;20453;-81
2022/04/19 06:31:50;;;;;;;14.73;8.37;;;7.50;72.10;;;;;;5016065;28;20446;-81
2022/04/19 06:34:17;;;;;;;16.27;9.50;;;7.50;74.10;;;;;;5016324;28;20499;-82
2022/04/19 06:36:44;;;;;;;15.40;9.97;;;7.60;75.90;;;;;;5020114;28;20473;-81
2022/04/19 06:39:12;;;;;;;10.23;9.20;;;7.70;76.00;;;;;;5019952;28;20457;-82
2022/04/19 06:41:41;;;;;;;10.77;8.83;;;7.90;75.30;;;;;;5022535;28;21038;-81
2022/04/19 06:44:08;;;;;;;15.98;9.20;;;7.90;73.20;;;;;;5019649;28;20458;-81
2022/04/19 06:46:36;;;;;;;13.83;8.90;;;8.20;70.30;;;;;;5021457;28;20230;-82
2022/04/19 06:49:03;;;;;;;24.13;9.63;;;8.20;68.80;;;;;;5020561;28;20934;-83
2022/04/19 06:51:30;;;;;;;19.77;10.80;;;8.40;71.20;;;;;;5021262;28;20449;-81
2022/04/19 06:53:57;;;;;;;23.13;9.43;;;8.50;75.30;;;;;;5021849;28;20525;-82
2022/04/19 06:56:25;;;;;;;11.73;9.37;;;8.70;74.70;;;;;;5021620;28;20473;-82
2022/04/19 06:58:52;;;;;;;16.73;10.40;;;8.80;72.80;;;;;;5021016;28;20456;-81
2022/04/19 07:01:19;;;;;;;14.20;9.80;;;8.90;74.10;;;;;;5021789;28;20761;-81
2022/04/19 07:03:45;;;;;;;12.23;9.70;;;9.00;72.50;;;;;;5021200;28;20812;-81
2022/04/19 07:06:12;;;;;;;14.57;11.20;;;9.20;74.50;;;;;;5021925;28;20540;-81
2022/04/19 07:08:39;;;;;;;14.83;10.53;;;9.30;71.70;;;;;;5021233;28;20460;-81
2022/04/19 07:11:06;;;;;;;15.73;9.40;;;9.40;71.30;;;;;;5020908;28;20862;-81
2022/04/19 07:13:34;;;;;;;17.07;8.33;;;9.50;68.50;;;;;;5021315;28;20453;-81
2022/04/19 07:16:02;;;;;;;16.10;9.43;;;9.70;70.10;;;;;;5021036;28;20556;-81
2022/04/19 07:18:29;;;;;;;13.73;8.93;;;9.90;70.00;;;;;;5020655;28;20453;-82
2022/04/19 07:26:40;;;;;;;12.83;7.43;;;10.30;58.30;;;;;;4980013;28;20458;-81
2022/04/19 07:29:10;;;;;;;13.60;8.17;;;10.50;56.20;;;;;;5002016;28;20471;-82
2022/04/19 07:31:37;;;;;;;11.00;7.23;;;10.50;53.50;;;;;;5021102;28;20481;-81
2022/04/19 07:34:04;;;;;;;13.83;8.93;;;10.60;52.60;;;;;;5021155;28;20484;-81
2022/04/19 07:36:31;;;;;;;10.63;8.23;;;10.80;50.10;;;;;;5021459;28;20472;-82
2022/04/19 07:38:58;;;;;;;15.70;7.60;;;11.00;49.30;;;;;;5020040;28;20457;-82
2022/04/19 07:41:25;;;;;;;16.43;8.80;;;11.00;51.40;;;;;;5019080;28;20484;-82
2022/04/19 07:43:52;;;;;;;15.47;8.53;;;11.20;47.10;;;;;;5020340;28;20540;-82
2022/04/19 07:46:20;;;;;;;11.73;7.83;;;11.30;45.10;;;;;;5045683;23;20523;-80
2022/04/19 07:48:48;;;;;;;12.20;8.67;;;11.50;37.70;;;;;;5018775;28;20461;-83
2022/04/19 07:51:15;;;;;;;10.87;8.00;;;11.70;44.70;;;;;;5020178;28;20480;-83
2022/04/19 07:53:42;;;;;;;12.17;8.00;;;11.90;39.60;;;;;;5020520;28;20445;-82
2022/04/19 07:56:09;;;;;;;18.03;7.00;;;12.20;34.50;;;;;;5020559;28;20461;-83
2022/04/19 07:58:36;;;;;;;14.77;7.10;;;12.70;28.60;;;;;;5019331;28;20860;-83
2022/04/19 08:01:03;;;;;;;15.07;7.63;;;13.30;25.70;;;;;;5020452;28;20453;-83
2022/04/19 08:03:32;;;;;;;11.13;8.03;;;13.70;24.90;;;;;;5020735;28;20449;-81
2022/04/19 08:05:59;;;;;;;10.77;7.63;;;14.20;23.80;;;;;;5020234;28;20458;-82
2022/04/19 08:08:25;;;;;;;11.10;7.20;;;14.60;17.10;;;;;;5018747;28;20487;-81
2022/04/19 08:10:52;;;;;;;12.07;7.53;;;14.90;13.10;;;;;;5019505;28;20449;-81
2022/04/19 08:13:19;;;;;;;15.63;8.20;;;15.30;14.20;;;;;;5020037;28;20450;-81
2022/04/19 08:15:46;;;;;;;14.00;7.83;;;15.70;11.10;;;;;;5019848;28;20483;-81
2022/04/19 08:18:15;;;;;;;12.90;7.67;;;16.00;11.10;;;;;;5019513;28;20473;-86
2022/04/19 08:20:44;;;;;;;14.17;8.10;;;16.10;9.40;;;;;;5017671;28;20552;-87
2022/04/19 08:23:11;;;;;;;19.33;8.40;;;16.20;6.00;;;;;;5016249;28;20459;-88
2022/04/19 08:25:38;;;;;;;16.87;9.17;;;16.20;4.90;;;;;;5015718;28;20459;-89
2022/04/19 08:28:06;;;;;;;15.23;9.13;;;16.70;2.20;;;;;;5016249;28;20475;-87
2022/04/19 08:30:33;;;;;;;12.80;8.50;;;16.60;2.10;;;;;;5014804;28;20457;-89
2022/04/19 08:33:00;;;;;;;15.40;8.57;;;17.10;1.00;;;;;;5015524;28;20810;-86
2022/04/19 08:35:27;;;;;;;15.30;8.53;;;17.30;1.00;;;;;;5014949;28;20492;-85
2022/04/19 08:37:56;;;;;;;15.57;7.57;;;17.50;1.00;;;;;;5015358;28;21021;-85
2022/04/19 08:40:25;;;;;;;14.67;8.30;;;17.50;1.00;;;;;;5017536;28;20516;-88
2022/04/19 08:42:51;;;;;;;15.73;8.50;;;17.90;1.00;;;;;;5016067;28;20462;-81
2022/04/19 08:45:20;;;;;;;17.40;9.57;;;18.30;1.00;;;;;;5019032;28;20199;-83
2022/04/19 08:47:48;;;;;;;12.10;8.13;;;18.50;1.00;;;;;;5017079;28;20486;-82
2022/04/19 08:50:17;;;;;;;14.30;9.20;;;18.30;1.00;;;;;;5018458;28;20842;-82
2022/04/19 08:52:45;;;;;;;11.37;8.27;;;18.70;1.00;;;;;;5019381;28;20455;-82
2022/04/19 08:57:59;;;;;;;19.40;8.90;;;19.40;1.00;;;;;;5018579;28;21016;-82
2022/04/19 09:00:27;;;;;;;15.80;9.13;;;19.80;1.00;;;;;;5018567;28;20460;-82
2022/04/19 09:02:56;;;;;;;12.37;7.77;;;20.00;1.00;;;;;;5018229;28;20483;-82
2022/04/19 09:05:26;;;;;;;12.57;7.87;;;19.20;1.00;;;;;;5019374;28;20479;-83
2022/04/19 09:07:57;;;;;;;13.20;8.87;;;19.50;1.00;;;;;;5018886;28;20479;-83
2022/04/19 09:10:29;;;;;;;13.03;8.90;;;20.00;1.00;;;;;;5018502;28;20457;-82
2022/04/19 09:13:04;;;;;;;14.57;8.00;;;20.40;1.00;;;;;;5018864;28;20484;-82
2022/04/19 09:15:39;;;;;;;14.27;8.33;;;19.80;1.00;;;;;;5019110;28;20907;-82
2022/04/19 09:18:12;;;;;;;14.53;8.90;;;20.10;1.00;;;;;;5018571;28;20498;-82
2022/04/19 09:20:39;;;;;;;15.63;9.17;;;20.30;1.00;;;;;;5019146;28;20456;-82
2022/04/19 09:23:08;;;;;;;13.30;8.43;;;20.60;1.00;;;;;;5018830;28;20458;-83
2022/04/19 09:25:37;;;;;;;13.50;9.27;;;21.20;1.00;;;;;;5018753;28;20449;-82
2022/04/19 09:28:15;;;;;;;13.70;8.10;;;20.70;1.00;;;;;;5018890;28;20851;-82
2022/04/19 09:30:42;;;;;;;12.67;8.43;;;20.80;1.00;;;;;;5018785;28;20509;-82
2022/04/19 09:33:11;;;;;;;11.77;8.10;;;20.90;1.00;;;;;;5019280;28;20555;-82
2022/04/19 09:35:39;;;;;;;13.87;10.53;;;21.20;1.00;;;;;;5018838;28;20482;-83
2022/04/19 09:38:07;;;;;;;14.27;7.73;;;21.50;1.00;;;;;;5017618;28;20477;-82
2022/04/19 09:40:37;;;;;;;11.93;8.17;;;21.80;1.00;;;;;;5017091;28;20532;-82
2022/04/19 09:43:11;;;;;;;11.63;9.30;;;21.60;1.00;;;;;;5018621;28;20461;-83
2022/04/19 09:45:50;;;;;;;13.00;7.90;;;21.30;1.00;;;;;;5017913;28;20913;-82
2022/04/19 09:48:17;;;;;;;14.57;7.80;;;21.80;1.00;;;;;;5018380;28;20543;-82
2022/04/19 09:50:53;;;;;;;13.27;8.13;;;22.10;1.00;;;;;;5018725;28;20949;-82
2022/04/19 09:53:21;;;;;;;12.70;8.90;;;21.70;1.00;;;;;;5018623;28;20436;-82
2022/04/19 09:55:51;;;;;;;12.63;9.23;;;22.10;1.00;;;;;;5017773;28;20828;-82
2022/04/19 09:58:18;;;;;;;11.57;8.63;;;22.30;1.00;;;;;;5017711;28;20475;-82
2022/04/19 10:00:46;;;;;;;11.73;8.50;;;22.00;1.00;;;;;;5018530;28;20452;-83
2022/04/19 10:08:46;;;;;;;13.23;8.77;;;21.80;1.00;;;;;;5017497;28;20443;-82
2022/04/19 10:11:16;;;;;;;13.83;8.57;;;22.40;1.00;;;;;;5017945;28;20548;-82
2022/04/19 10:13:43;;;;;;;12.37;8.90;;;22.90;1.00;;;;;;5018535;28;20453;-83
2022/04/19 10:16:12;;;;;;;17.50;8.83;;;23.30;1.00;;;;;;5018357;28;20456;-83
2022/04/19 10:18:39;;;;;;;11.60;8.67;;;23.10;1.00;;;;;;5017407;28;20530;-83
2022/04/19 10:21:09;;;;;;;12.10;7.90;;;23.60;1.00;;;;;;5018752;28;20453;-83
2022/04/19 10:23:37;;;;;;;10.33;7.30;;;23.50;1.00;;;;;;5018196;28;20457;-82
2022/04/19 10:26:20;;;;;;;13.40;8.30;;;24.00;1.00;;;;;;5018353;28;20473;-83
2022/04/19 10:28:48;;;;;;;11.07;7.50;;;23.70;1.00;;;;;;5017977;28;20487;-83
2022/04/19 10:31:25;;;;;;;11.00;8.10;;;23.30;1.00;;;;;;5018781;28;20460;-83
2022/04/19 10:33:53;;;;;;;11.40;8.03;;;23.10;1.00;;;;;;5018541;28;20460;-83
2022/04/19 10:36:22;;;;;;;10.30;6.53;;;22.50;1.00;;;;;;5017635;28;20829;-83
2022/04/19 10:39:20;;;;;;;10.53;7.77;;;22.20;1.00;;;;;;5017057;28;20453;-83
2022/04/19 10:41:51;;;;;;;11.60;7.53;;;22.70;1.00;;;;;;5016497;28;20445;-82
2022/04/19 10:44:48;;;;;;;11.00;8.07;;;22.30;1.00;;;;;;5017096;28;20499;-81
2022/04/19 10:47:16;;;;;;;10.80;7.87;;;22.90;1.00;;;;;;5016436;28;20496;-83
2022/04/19 10:50:04;;;;;;;10.80;6.60;;;23.30;1.00;;;;;;5017760;28;20519;-84
2022/04/19 10:52:51;;;;;;;10.77;7.23;;;22.70;1.00;;;;;;5020974;28;20463;-84
2022/04/19 10:55:23;;;;;;;13.80;7.30;;;22.40;1.00;;;;;;5017816;28;20428;-83
2022/04/19 11:00:38;;;;;;;8.33;5.60;;;22.90;1.00;;;;;;5017960;28;20499;-83
2022/04/19 11:03:07;;;;;;;8.60;6.03;;;22.20;1.00;;;;;;5016858;28;20460;-82
2022/04/19 11:05:41;;;;;;;13.17;7.77;;;22.00;1.00;;;;;;5015976;28;20480;-81
2022/04/19 11:08:32;;;;;;;9.60;5.97;;;22.80;1.00;;;;;;5015434;28;20559;-82
2022/04/19 11:11:25;;;;;;;11.03;5.93;;;22.70;1.00;;;;;;5015643;28;20457;-82
2022/04/19 11:14:33;;;;;;;11.37;7.43;;;22.50;1.00;;;;;;5015409;28;20449;-82
2022/04/19 11:17:32;;;;;;;11.33;7.83;;;23.40;1.00;;;;;;5014857;28;20455;-82
2022/04/19 11:20:13;;;;;;;11.10;7.07;;;24.10;1.00;;;;;;5013563;28;20427;-82
2022/04/19 11:22:47;;;;;;;10.63;7.00;;;23.80;1.00;;;;;;5019487;28;20452;-82
2022/04/19 11:25:14;;;;;;;10.90;7.67;;;24.20;1.00;;;;;;5019245;28;20480;-82
2022/04/19 11:28:22;;;;;;;10.30;7.13;;;24.00;1.00;;;;;;5019956;28;20472;-82
2022/04/19 11:31:08;;;;;;;11.53;8.40;;;23.60;1.00;;;;;;5019968;28;20427;-82
2022/04/19 11:33:36;;;;;;;9.20;6.30;;;24.30;1.00;;;;;;5018567;28;20428;-82
2022/04/19 11:36:06;;;;;;;9.10;6.73;;;23.90;1.00;;;;;;5019140;28;20510;-82
2022/04/19 11:38:35;;;;;;;11.30;6.33;;;24.00;1.00;;;;;;5017686;28;20466;-82
2022/04/19 11:46:45;;;;;;;9.87;7.40;;;24.00;1.00;;;;;;5018687;28;20475;-82
2022/04/19 11:49:24;;;;;;;8.73;5.70;;;24.50;1.00;;;;;;5017448;28;20764;-82
2022/04/19 11:51:54;;;;;;;8.20;5.40;;;23.60;1.00;;;;;;5019222;28;20456;-82
2022/04/19 11:54:23;;;;;;;7.70;5.07;;;24.10;1.00;;;;;;5019392;28;20456;-81
2022/04/19 11:56:53;;;;;;;11.43;7.00;;;23.00;1.00;;;;;;5016813;28;20444;-79
2022/04/19 11:59:26;;;;;;;11.67;7.47;;;23.80;1.00;;;;;;5016293;28;20503;-77
2022/04/19 12:01:53;;;;;;;11.30;6.80;;;24.50;1.00;;;;;;5016877;28;20494;-79
2022/04/19 12:04:20;;;;;;;10.80;6.80;;;24.20;1.00;;;;;;5017809;28;20457;-79
2022/04/19 12:06:48;;;;;;;9.23;6.20;;;24.00;1.00;;;;;;5017401;28;20559;-79
2022/04/19 12:09:18;;;;;;;7.90;5.33;;;24.50;1.00;;;;;;5017748;28;20457;-80
2022/04/19 12:11:47;;;;;;;9.30;4.90;;;25.20;1.00;;;;;;5021776;28;20503;-79
2022/04/19 12:14:24;;;;;;;8.73;5.00;;;24.50;1.00;;;;;;5021186;28;20457;-81
2022/04/19 12:16:59;;;;;;;7.40;4.70;;;24.00;1.00;;;;;;5021578;28;20483;-82
2022/04/19 12:19:38;;;;;;;8.50;3.90;;;22.90;1.00;;;;;;5019511;28;20468;-81
2022/04/19 12:22:15;;;;;;;8.00;4.20;;;22.90;1.00;;;;;;5019304;28;20457;-79
2022/04/19 12:24:48;;;;;;;9.20;4.97;;;22.00;1.00;;;;;;5019749;28;20430;-82
2022/04/19 12:27:15;;;;;;;7.47;4.17;;;22.20;1.00;;;;;;5019538;28;20485;-81
2022/04/19 12:29:59;;;;;;;9.10;4.60;;;22.90;1.00;;;;;;5018413;28;20453;-81
2022/04/19 12:32:27;;;;;;;9.00;6.20;;;23.20;1.00;;;;;;5020169;28;20444;-80
2022/04/19 12:35:07;;;;;;;10.73;5.67;;;23.50;1.00;;;;;;5020245;28;20475;-81
2022/04/19 12:37:33;;;;;;;11.17;5.10;;;24.50;1.00;;;;;;5019619;28;20503;-81
2022/04/19 12:40:02;;;;;;;8.00;4.47;;;24.00;1.00;;;;;;5018624;28;20460;-81
2022/04/19 12:42:29;;;;;;;7.80;4.70;;;23.20;1.00;;;;;;5017943;28;20464;-81
2022/04/19 12:45:04;;;;;;;8.60;4.83;;;22.80;1.00;;;;;;5019433;28;20453;-81
2022/04/19 12:47:31;;;;;;;8.83;4.60;;;22.50;1.00;;;;;;5019281;28;20487;-81
2022/04/19 12:49:58;;;;;;;7.60;4.83;;;22.80;1.00;;;;;;5018500;28;20460;-81
2022/04/19 12:52:32;;;;;;;10.57;5.73;;;22.70;1.00;;;;;;5020205;28;20481;-80
2022/04/19 12:55:02;;;;;;;11.10;4.83;;;24.00;1.00;;;;;;5020039;28;20457;-80
2022/04/19 12:57:29;;;;;;;7.77;4.77;;;23.30;1.00;;;;;;5019575;28;20523;-81
2022/04/19 12:59:56;;;;;;;8.10;4.77;;;23.50;1.00;;;;;;5019459;28;20973;-81
2022/04/19 13:02:22;;;;;;;10.17;5.93;;;25.10;1.00;;;;;;5019712;28;20956;-80
2022/04/19 13:04:50;;;;;;;11.63;5.40;;;24.70;1.00;;;;;;5018753;28;20464;-81
2022/04/19 13:12:50;;;;;;;8.30;5.47;;;23.10;1.00;;;;;;5019603;28;20440;-81
2022/04/19 13:15:17;;;;;;;13.30;6.43;;;23.30;1.00;;;;;;5019515;28;20432;-81
2022/04/19 13:17:44;;;;;;;8.60;5.60;;;24.20;1.00;;;;;;5019954;28;20823;-81
2022/04/19 13:20:12;;;;;;;9.73;5.00;;;24.50;1.00;;;;;;5019320;28;20484;-81
2022/04/19 13:22:38;;;;;;;7.80;4.53;;;24.90;1.00;;;;;;5019695;28;20461;-81
2022/04/19 13:25:08;;;;;;;8.53;5.23;;;25.20;1.00;;;;;;5019839;28;20460;-81
2022/04/19 13:27:36;;;;;;;7.40;4.77;;;25.00;1.00;;;;;;5019521;28;20476;-82
2022/04/19 13:30:04;;;;;;;10.10;3.80;;;25.50;1.00;;;;;;5000173;28;20420;-81